sensor_id;sensor_type;location;lat;lon;timestamp;P1;durP1;ratioP1;P2;durP2;ratioP2
57846;SDS011;43675;50.030;21.952;2024-03-08T00:00:12;45.10;;;40.40;;
57846;SDS011;43675;50.030;21.952;2024-03-08T00:02:59;45.00;;;40.60;;
57846;SDS011;43675;50.030;21.952;2024-03-08T00:05:26;45.70;;;41.10;;
57846;SDS011;43675;50.030;21.952;2024-03-08T00:07:53;45.70;;;41.20;;
57846;SDS011;43675;50.030;21.952;2024-03-08T00:10:19;44.70;;;40.20;;
57846;SDS011;43675;50.030;21.952;2024-03-08T00:12:46;45.60;;;40.90;;
57846;SDS011;43675;50.030;21.952;2024-03-08T00:15:15;45.70;;;41.30;;
57846;SDS011;43675;50.030;21.952;2024-03-08T00:17:43;45.80;;;41.30;;
57846;SDS011;43675;50.030;21.952;2024-03-08T00:20:10;45.50;;;41.10;;
57846;SDS011;43675;50.030;21.952;2024-03-08T00:22:37;46.20;;;41.50;;
57846;SDS011;43675;50.030;21.952;2024-03-08T00:25:05;45.40;;;41.00;;
57846;SDS011;43675;50.030;21.952;2024-03-08T00:27:33;46.20;;;41.70;;
57846;SDS011;43675;50.030;21.952;2024-03-08T00:30:00;46.90;;;42.30;;
57846;SDS011;43675;50.030;21.952;2024-03-08T00:32:27;49.40;;;44.10;;
57846;SDS011;43675;50.030;21.952;2024-03-08T00:34:56;48.70;;;43.60;;
57846;SDS011;43675;50.030;21.952;2024-03-08T00:37:23;49.00;;;43.70;;
57846;SDS011;43675;50.030;21.952;2024-03-08T00:39:53;50.10;;;44.80;;
57846;SDS011;43675;50.030;21.952;2024-03-08T00:42:23;48.60;;;43.70;;
57846;SDS011;43675;50.030;21.952;2024-03-08T00:44:50;49.20;;;44.10;;
57846;SDS011;43675;50.030;21.952;2024-03-08T00:47:20;50.30;;;45.20;;
57846;SDS011;43675;50.030;21.952;2024-03-08T00:49:49;52.40;;;47.00;;
57846;SDS011;43675;50.030;21.952;2024-03-08T00:52:25;52.50;;;46.90;;
57846;SDS011;43675;50.030;21.952;2024-03-08T00:54:52;53.80;;;48.20;;
57846;SDS011;43675;50.030;21.952;2024-03-08T00:57:21;54.30;;;48.70;;
57846;SDS011;43675;50.030;21.952;2024-03-08T00:59:50;56.70;;;50.60;;
57846;SDS011;43675;50.030;21.952;2024-03-08T01:02:20;58.00;;;51.90;;
57846;SDS011;43675;50.030;21.952;2024-03-08T01:04:52;58.40;;;52.30;;
57846;SDS011;43675;50.030;21.952;2024-03-08T01:07:22;59.20;;;53.20;;
57846;SDS011;43675;50.030;21.952;2024-03-08T01:09:54;58.80;;;52.50;;
57846;SDS011;43675;50.030;21.952;2024-03-08T01:12:23;61.90;;;55.20;;
57846;SDS011;43675;50.030;21.952;2024-03-08T01:14:53;60.10;;;53.80;;
57846;SDS011;43675;50.030;21.952;2024-03-08T01:17:20;59.00;;;52.80;;
57846;SDS011;43675;50.030;21.952;2024-03-08T01:19:47;57.60;;;51.50;;
57846;SDS011;43675;50.030;21.952;2024-03-08T01:22:20;59.60;;;52.90;;
57846;SDS011;43675;50.030;21.952;2024-03-08T01:24:47;60.00;;;53.50;;
57846;SDS011;43675;50.030;21.952;2024-03-08T01:27:22;59.10;;;53.00;;
57846;SDS011;43675;50.030;21.952;2024-03-08T01:29:58;60.40;;;54.00;;
57846;SDS011;43675;50.030;21.952;2024-03-08T01:32:25;60.30;;;53.90;;
57846;SDS011;43675;50.030;21.952;2024-03-08T01:34:52;61.30;;;54.50;;
57846;SDS011;43675;50.030;21.952;2024-03-08T01:37:19;60.10;;;53.80;;
57846;SDS011;43675;50.030;21.952;2024-03-08T01:39:45;59.80;;;53.50;;
57846;SDS011;43675;50.030;21.952;2024-03-08T01:42:15;61.90;;;55.20;;
57846;SDS011;43675;50.030;21.952;2024-03-08T01:44:45;61.30;;;54.80;;
57846;SDS011;43675;50.030;21.952;2024-03-08T01:47:21;61.30;;;55.00;;
57846;SDS011;43675;50.030;21.952;2024-03-08T01:49:49;61.30;;;54.70;;
57846;SDS011;43675;50.030;21.952;2024-03-08T01:55:02;61.40;;;54.80;;
57846;SDS011;43675;50.030;21.952;2024-03-08T01:57:32;64.90;;;58.10;;
57846;SDS011;43675;50.030;21.952;2024-03-08T02:00:00;64.10;;;57.20;;
57846;SDS011;43675;50.030;21.952;2024-03-08T02:02:28;64.40;;;57.90;;
57846;SDS011;43675;50.030;21.952;2024-03-08T02:04:55;65.40;;;58.30;;
57846;SDS011;43675;50.030;21.952;2024-03-08T02:07:22;65.30;;;58.30;;
57846;SDS011;43675;50.030;21.952;2024-03-08T02:09:48;66.80;;;59.50;;
57846;SDS011;43675;50.030;21.952;2024-03-08T02:12:15;65.30;;;58.40;;
57846;SDS011;43675;50.030;21.952;2024-03-08T02:14:42;69.60;;;62.40;;
57846;SDS011;43675;50.030;21.952;2024-03-08T02:17:16;72.60;;;65.00;;
57846;SDS011;43675;50.030;21.952;2024-03-08T02:22:10;70.70;;;63.20;;
57846;SDS011;43675;50.030;21.952;2024-03-08T02:24:42;71.60;;;64.00;;
57846;SDS011;43675;50.030;21.952;2024-03-08T02:27:09;72.70;;;64.90;;
57846;SDS011;43675;50.030;21.952;2024-03-08T02:29:36;71.30;;;63.70;;
57846;SDS011;43675;50.030;21.952;2024-03-08T02:32:03;72.90;;;65.10;;
57846;SDS011;43675;50.030;21.952;2024-03-08T02:34:30;72.50;;;64.80;;
57846;SDS011;43675;50.030;21.952;2024-03-08T02:36:58;76.00;;;67.90;;
57846;SDS011;43675;50.030;21.952;2024-03-08T02:39:32;77.20;;;69.20;;
57846;SDS011;43675;50.030;21.952;2024-03-08T02:45:00;79.40;;;71.20;;
57846;SDS011;43675;50.030;21.952;2024-03-08T02:47:27;78.60;;;70.00;;
57846;SDS011;43675;50.030;21.952;2024-03-08T02:50:02;80.50;;;71.80;;
57846;SDS011;43675;50.030;21.952;2024-03-08T02:52:38;82.20;;;73.40;;
57846;SDS011;43675;50.030;21.952;2024-03-08T02:55:15;86.50;;;77.10;;
57846;SDS011;43675;50.030;21.952;2024-03-08T02:57:51;84.20;;;75.40;;
57846;SDS011;43675;50.030;21.952;2024-03-08T03:00:19;88.60;;;79.10;;
57846;SDS011;43675;50.030;21.952;2024-03-08T03:02:47;89.80;;;80.10;;
57846;SDS011;43675;50.030;21.952;2024-03-08T03:05:20;93.00;;;83.30;;
57846;SDS011;43675;50.030;21.952;2024-03-08T03:07:50;92.80;;;83.00;;
57846;SDS011;43675;50.030;21.952;2024-03-08T03:10:20;96.10;;;85.70;;
57846;SDS011;43675;50.030;21.952;2024-03-08T03:12:46;95.90;;;85.70;;
57846;SDS011;43675;50.030;21.952;2024-03-08T03:15:13;95.00;;;84.40;;
57846;SDS011;43675;50.030;21.952;2024-03-08T03:17:40;93.80;;;83.50;;
57846;SDS011;43675;50.030;21.952;2024-03-08T03:20:07;92.90;;;82.00;;
57846;SDS011;43675;50.030;21.952;2024-03-08T03:22:36;88.80;;;79.20;;
57846;SDS011;43675;50.030;21.952;2024-03-08T03:25:03;86.20;;;76.70;;
57846;SDS011;43675;50.030;21.952;2024-03-08T03:27:30;92.50;;;82.60;;
57846;SDS011;43675;50.030;21.952;2024-03-08T03:29:57;87.00;;;77.60;;
57846;SDS011;43675;50.030;21.952;2024-03-08T03:32:24;79.90;;;71.40;;
57846;SDS011;43675;50.030;21.952;2024-03-08T03:34:50;80.40;;;71.60;;
57846;SDS011;43675;50.030;21.952;2024-03-08T03:37:19;81.80;;;70.20;;
57846;SDS011;43675;50.030;21.952;2024-03-08T03:39:54;78.80;;;67.00;;
57846;SDS011;43675;50.030;21.952;2024-03-08T03:42:21;75.00;;;65.50;;
57846;SDS011;43675;50.030;21.952;2024-03-08T03:44:51;78.60;;;67.90;;
57846;SDS011;43675;50.030;21.952;2024-03-08T03:47:29;78.70;;;66.40;;
57846;SDS011;43675;50.030;21.952;2024-03-08T03:49:56;76.30;;;66.10;;
57846;SDS011;43675;50.030;21.952;2024-03-08T03:52:23;71.70;;;63.50;;
57846;SDS011;43675;50.030;21.952;2024-03-08T03:54:53;72.70;;;62.80;;
57846;SDS011;43675;50.030;21.952;2024-03-08T03:57:25;74.90;;;64.20;;
57846;SDS011;43675;50.030;21.952;2024-03-08T03:59:58;76.10;;;65.10;;
57846;SDS011;43675;50.030;21.952;2024-03-08T04:05:11;75.10;;;62.90;;
57846;SDS011;43675;50.030;21.952;2024-03-08T04:07:38;78.30;;;68.80;;
57846;SDS011;43675;50.030;21.952;2024-03-08T04:10:06;73.20;;;65.10;;
57846;SDS011;43675;50.030;21.952;2024-03-08T04:12:35;78.80;;;68.20;;
57846;SDS011;43675;50.030;21.952;2024-03-08T04:15:05;78.40;;;69.90;;
57846;SDS011;43675;50.030;21.952;2024-03-08T04:17:34;77.10;;;68.90;;
57846;SDS011;43675;50.030;21.952;2024-03-08T04:20:01;79.70;;;68.10;;
57846;SDS011;43675;50.030;21.952;2024-03-08T04:22:28;81.60;;;72.70;;
57846;SDS011;43675;50.030;21.952;2024-03-08T04:24:55;84.80;;;75.00;;
57846;SDS011;43675;50.030;21.952;2024-03-08T04:27:21;82.50;;;73.50;;
57846;SDS011;43675;50.030;21.952;2024-03-08T04:29:53;88.30;;;77.40;;
57846;SDS011;43675;50.030;21.952;2024-03-08T04:32:30;89.30;;;78.20;;
57846;SDS011;43675;50.030;21.952;2024-03-08T04:35:31;96.00;;;83.50;;
57846;SDS011;43675;50.030;21.952;2024-03-08T04:38:06;96.90;;;83.70;;
57846;SDS011;43675;50.030;21.952;2024-03-08T04:41:03;96.20;;;84.70;;
57846;SDS011;43675;50.030;21.952;2024-03-08T04:43:33;100.00;;;89.20;;
57846;SDS011;43675;50.030;21.952;2024-03-08T04:46:04;101.50;;;88.60;;
57846;SDS011;43675;50.030;21.952;2024-03-08T04:48:31;103.20;;;89.30;;
57846;SDS011;43675;50.030;21.952;2024-03-08T04:50:58;103.30;;;88.10;;
57846;SDS011;43675;50.030;21.952;2024-03-08T04:53:24;105.00;;;89.80;;
57846;SDS011;43675;50.030;21.952;2024-03-08T04:55:51;100.40;;;86.40;;
57846;SDS011;43675;50.030;21.952;2024-03-08T04:58:18;102.40;;;88.00;;
57846;SDS011;43675;50.030;21.952;2024-03-08T05:00:50;109.20;;;93.20;;
57846;SDS011;43675;50.030;21.952;2024-03-08T05:03:45;103.70;;;81.70;;
57846;SDS011;43675;50.030;21.952;2024-03-08T05:06:11;104.80;;;83.00;;
57846;SDS011;43675;50.030;21.952;2024-03-08T05:08:38;109.30;;;84.00;;
57846;SDS011;43675;50.030;21.952;2024-03-08T05:11:05;106.10;;;85.40;;
57846;SDS011;43675;50.030;21.952;2024-03-08T05:13:32;102.40;;;81.70;;
57846;SDS011;43675;50.030;21.952;2024-03-08T05:15:59;105.00;;;84.20;;
57846;SDS011;43675;50.030;21.952;2024-03-08T05:18:29;108.10;;;84.10;;
57846;SDS011;43675;50.030;21.952;2024-03-08T05:20:59;98.60;;;81.90;;
57846;SDS011;43675;50.030;21.952;2024-03-08T05:23:33;101.00;;;80.80;;
57846;SDS011;43675;50.030;21.952;2024-03-08T05:25:59;101.80;;;82.00;;
57846;SDS011;43675;50.030;21.952;2024-03-08T05:28:26;102.40;;;82.80;;
57846;SDS011;43675;50.030;21.952;2024-03-08T05:31:08;96.10;;;80.20;;
57846;SDS011;43675;50.030;21.952;2024-03-08T05:33:54;90.50;;;77.00;;
57846;SDS011;43675;50.030;21.952;2024-03-08T05:36:32;87.70;;;75.50;;
57846;SDS011;43675;50.030;21.952;2024-03-08T05:39:05;91.30;;;76.60;;
57846;SDS011;43675;50.030;21.952;2024-03-08T05:41:41;83.10;;;72.00;;
57846;SDS011;43675;50.030;21.952;2024-03-08T05:44:17;83.10;;;70.70;;
57846;SDS011;43675;50.030;21.952;2024-03-08T05:46:44;79.40;;;66.80;;
57846;SDS011;43675;50.030;21.952;2024-03-08T05:49:10;76.50;;;66.60;;
57846;SDS011;43675;50.030;21.952;2024-03-08T05:51:37;73.60;;;63.90;;
57846;SDS011;43675;50.030;21.952;2024-03-08T05:54:05;72.80;;;62.20;;
57846;SDS011;43675;50.030;21.952;2024-03-08T05:56:36;69.20;;;61.30;;
57846;SDS011;43675;50.030;21.952;2024-03-08T05:59:03;71.30;;;60.10;;
57846;SDS011;43675;50.030;21.952;2024-03-08T06:01:30;67.50;;;58.30;;
57846;SDS011;43675;50.030;21.952;2024-03-08T06:03:58;64.60;;;57.60;;
57846;SDS011;43675;50.030;21.952;2024-03-08T06:06:28;64.40;;;56.50;;
57846;SDS011;43675;50.030;21.952;2024-03-08T06:08:55;61.10;;;54.40;;
57846;SDS011;43675;50.030;21.952;2024-03-08T06:11:30;62.40;;;55.50;;
57846;SDS011;43675;50.030;21.952;2024-03-08T06:13:58;64.50;;;55.80;;
57846;SDS011;43675;50.030;21.952;2024-03-08T06:16:28;60.30;;;53.80;;
57846;SDS011;43675;50.030;21.952;2024-03-08T06:18:55;60.10;;;53.50;;
57846;SDS011;43675;50.030;21.952;2024-03-08T06:21:23;59.00;;;52.40;;
57846;SDS011;43675;50.030;21.952;2024-03-08T06:23:50;58.90;;;52.50;;
57846;SDS011;43675;50.030;21.952;2024-03-08T06:26:17;57.50;;;51.30;;
57846;SDS011;43675;50.030;21.952;2024-03-08T06:31:33;53.30;;;47.50;;
57846;SDS011;43675;50.030;21.952;2024-03-08T06:34:00;52.60;;;47.00;;
57846;SDS011;43675;50.030;21.952;2024-03-08T06:36:33;52.90;;;47.30;;
57846;SDS011;43675;50.030;21.952;2024-03-08T06:39:00;52.10;;;46.40;;
57846;SDS011;43675;50.030;21.952;2024-03-08T06:41:27;53.50;;;47.90;;
57846;SDS011;43675;50.030;21.952;2024-03-08T06:43:53;54.50;;;48.60;;
57846;SDS011;43675;50.030;21.952;2024-03-08T06:46:20;53.90;;;48.00;;
57846;SDS011;43675;50.030;21.952;2024-03-08T06:48:46;51.90;;;46.30;;
57846;SDS011;43675;50.030;21.952;2024-03-08T06:51:13;52.40;;;46.70;;
57846;SDS011;43675;50.030;21.952;2024-03-08T06:53:40;53.60;;;46.80;;
57846;SDS011;43675;50.030;21.952;2024-03-08T06:56:07;52.70;;;47.30;;
57846;SDS011;43675;50.030;21.952;2024-03-08T06:58:34;52.60;;;47.00;;
57846;SDS011;43675;50.030;21.952;2024-03-08T07:01:01;50.40;;;45.00;;
57846;SDS011;43675;50.030;21.952;2024-03-08T07:03:28;48.30;;;43.30;;
57846;SDS011;43675;50.030;21.952;2024-03-08T07:06:02;47.20;;;42.40;;
57846;SDS011;43675;50.030;21.952;2024-03-08T07:08:29;49.70;;;44.40;;
57846;SDS011;43675;50.030;21.952;2024-03-08T07:10:57;49.40;;;44.00;;
57846;SDS011;43675;50.030;21.952;2024-03-08T07:13:23;51.00;;;45.60;;
57846;SDS011;43675;50.030;21.952;2024-03-08T07:15:50;50.90;;;45.50;;
57846;SDS011;43675;50.030;21.952;2024-03-08T07:18:17;52.20;;;46.00;;
57846;SDS011;43675;50.030;21.952;2024-03-08T07:20:43;49.70;;;44.50;;
57846;SDS011;43675;50.030;21.952;2024-03-08T07:23:10;51.80;;;46.20;;
57846;SDS011;43675;50.030;21.952;2024-03-08T07:25:37;50.40;;;45.00;;
57846;SDS011;43675;50.030;21.952;2024-03-08T07:28:04;50.80;;;45.50;;
57846;SDS011;43675;50.030;21.952;2024-03-08T07:30:30;52.30;;;46.20;;
57846;SDS011;43675;50.030;21.952;2024-03-08T07:32:57;49.00;;;43.70;;
57846;SDS011;43675;50.030;21.952;2024-03-08T07:35:24;48.20;;;43.20;;
57846;SDS011;43675;50.030;21.952;2024-03-08T07:37:50;52.70;;;44.00;;
57846;SDS011;43675;50.030;21.952;2024-03-08T07:40:17;50.50;;;45.20;;
57846;SDS011;43675;50.030;21.952;2024-03-08T07:42:44;49.60;;;44.20;;
57846;SDS011;43675;50.030;21.952;2024-03-08T07:45:10;47.70;;;42.90;;
57846;SDS011;43675;50.030;21.952;2024-03-08T07:47:37;50.00;;;44.70;;
57846;SDS011;43675;50.030;21.952;2024-03-08T07:50:04;47.30;;;42.50;;
57846;SDS011;43675;50.030;21.952;2024-03-08T07:52:32;49.90;;;44.70;;
57846;SDS011;43675;50.030;21.952;2024-03-08T07:54:58;47.20;;;42.40;;
57846;SDS011;43675;50.030;21.952;2024-03-08T07:57:25;49.40;;;44.30;;
57846;SDS011;43675;50.030;21.952;2024-03-08T07:59:52;46.80;;;41.90;;
57846;SDS011;43675;50.030;21.952;2024-03-08T08:02:24;49.30;;;44.10;;
57846;SDS011;43675;50.030;21.952;2024-03-08T08:04:51;46.50;;;41.70;;
57846;SDS011;43675;50.030;21.952;2024-03-08T08:07:17;48.10;;;43.00;;
57846;SDS011;43675;50.030;21.952;2024-03-08T08:09:52;49.50;;;44.40;;
57846;SDS011;43675;50.030;21.952;2024-03-08T08:12:19;47.80;;;43.00;;
57846;SDS011;43675;50.030;21.952;2024-03-08T08:14:45;48.90;;;43.70;;
57846;SDS011;43675;50.030;21.952;2024-03-08T08:17:12;49.10;;;43.80;;
57846;SDS011;43675;50.030;21.952;2024-03-08T08:19:42;49.20;;;43.90;;
57846;SDS011;43675;50.030;21.952;2024-03-08T08:22:09;49.70;;;44.40;;
57846;SDS011;43675;50.030;21.952;2024-03-08T08:24:35;49.70;;;44.50;;
57846;SDS011;43675;50.030;21.952;2024-03-08T08:27:02;48.60;;;43.60;;
57846;SDS011;43675;50.030;21.952;2024-03-08T08:29:30;48.40;;;43.30;;
57846;SDS011;43675;50.030;21.952;2024-03-08T08:32:00;50.30;;;44.90;;
57846;SDS011;43675;50.030;21.952;2024-03-08T08:34:26;48.10;;;42.90;;
57846;SDS011;43675;50.030;21.952;2024-03-08T08:36:53;48.50;;;43.50;;
57846;SDS011;43675;50.030;21.952;2024-03-08T08:39:20;49.10;;;43.90;;
57846;SDS011;43675;50.030;21.952;2024-03-08T08:41:46;48.00;;;43.10;;
57846;SDS011;43675;50.030;21.952;2024-03-08T08:44:13;48.60;;;43.60;;
57846;SDS011;43675;50.030;21.952;2024-03-08T08:46:39;47.40;;;42.60;;
57846;SDS011;43675;50.030;21.952;2024-03-08T08:49:06;47.60;;;42.60;;
57846;SDS011;43675;50.030;21.952;2024-03-08T08:51:33;46.00;;;41.30;;
57846;SDS011;43675;50.030;21.952;2024-03-08T08:53:59;45.90;;;41.30;;
57846;SDS011;43675;50.030;21.952;2024-03-08T08:56:26;45.40;;;40.80;;
57846;SDS011;43675;50.030;21.952;2024-03-08T08:58:59;43.40;;;38.90;;
57846;SDS011;43675;50.030;21.952;2024-03-08T09:01:26;42.20;;;37.90;;
57846;SDS011;43675;50.030;21.952;2024-03-08T09:03:59;44.90;;;40.20;;
57846;SDS011;43675;50.030;21.952;2024-03-08T09:06:26;43.80;;;39.20;;
57846;SDS011;43675;50.030;21.952;2024-03-08T09:08:52;43.50;;;39.10;;
57846;SDS011;43675;50.030;21.952;2024-03-08T09:11:19;43.10;;;38.60;;
57846;SDS011;43675;50.030;21.952;2024-03-08T09:13:46;43.30;;;39.00;;
57846;SDS011;43675;50.030;21.952;2024-03-08T09:16:12;42.50;;;38.10;;
57846;SDS011;43675;50.030;21.952;2024-03-08T09:18:39;43.10;;;38.50;;
57846;SDS011;43675;50.030;21.952;2024-03-08T09:21:06;42.60;;;38.20;;
57846;SDS011;43675;50.030;21.952;2024-03-08T09:23:39;43.50;;;39.00;;
57846;SDS011;43675;50.030;21.952;2024-03-08T09:26:06;44.70;;;40.30;;
57846;SDS011;43675;50.030;21.952;2024-03-08T09:28:32;41.90;;;37.70;;
57846;SDS011;43675;50.030;21.952;2024-03-08T09:30:59;41.10;;;37.00;;
57846;SDS011;43675;50.030;21.952;2024-03-08T09:33:25;40.00;;;35.70;;
57846;SDS011;43675;50.030;21.952;2024-03-08T09:35:52;40.40;;;36.50;;
57846;SDS011;43675;50.030;21.952;2024-03-08T09:38:19;39.80;;;35.90;;
57846;SDS011;43675;50.030;21.952;2024-03-08T09:40:51;41.50;;;37.30;;
57846;SDS011;43675;50.030;21.952;2024-03-08T09:43:18;40.20;;;36.10;;
57846;SDS011;43675;50.030;21.952;2024-03-08T09:45:51;40.10;;;36.20;;
57846;SDS011;43675;50.030;21.952;2024-03-08T09:48:18;40.70;;;36.70;;
57846;SDS011;43675;50.030;21.952;2024-03-08T09:50:45;40.60;;;36.70;;
57846;SDS011;43675;50.030;21.952;2024-03-08T09:53:12;39.50;;;35.40;;
57846;SDS011;43675;50.030;21.952;2024-03-08T09:55:39;40.10;;;36.10;;
57846;SDS011;43675;50.030;21.952;2024-03-08T09:58:06;41.20;;;37.10;;
57846;SDS011;43675;50.030;21.952;2024-03-08T10:00:34;39.00;;;35.30;;
57846;SDS011;43675;50.030;21.952;2024-03-08T10:03:07;40.10;;;36.30;;
57846;SDS011;43675;50.030;21.952;2024-03-08T10:05:34;40.50;;;36.50;;
57846;SDS011;43675;50.030;21.952;2024-03-08T10:08:01;40.00;;;36.10;;
57846;SDS011;43675;50.030;21.952;2024-03-08T10:10:28;40.80;;;36.80;;
57846;SDS011;43675;50.030;21.952;2024-03-08T10:12:55;39.70;;;35.90;;
57846;SDS011;43675;50.030;21.952;2024-03-08T10:15:22;40.30;;;36.50;;
57846;SDS011;43675;50.030;21.952;2024-03-08T10:17:48;39.90;;;35.90;;
57846;SDS011;43675;50.030;21.952;2024-03-08T10:20:15;39.90;;;35.90;;
57846;SDS011;43675;50.030;21.952;2024-03-08T10:22:43;41.20;;;37.00;;
57846;SDS011;43675;50.030;21.952;2024-03-08T10:25:13;40.00;;;36.10;;
57846;SDS011;43675;50.030;21.952;2024-03-08T10:27:39;40.00;;;36.20;;
57846;SDS011;43675;50.030;21.952;2024-03-08T10:30:14;40.70;;;36.80;;
57846;SDS011;43675;50.030;21.952;2024-03-08T10:32:41;40.10;;;36.20;;
57846;SDS011;43675;50.030;21.952;2024-03-08T10:35:08;40.70;;;36.80;;
57846;SDS011;43675;50.030;21.952;2024-03-08T10:37:37;40.90;;;36.90;;
57846;SDS011;43675;50.030;21.952;2024-03-08T10:40:10;40.90;;;36.60;;
57846;SDS011;43675;50.030;21.952;2024-03-08T10:43:05;41.70;;;37.80;;
57846;SDS011;43675;50.030;21.952;2024-03-08T10:48:17;41.00;;;36.90;;
57846;SDS011;43675;50.030;21.952;2024-03-08T10:50:52;41.10;;;37.00;;
57846;SDS011;43675;50.030;21.952;2024-03-08T10:53:19;42.60;;;38.40;;
57846;SDS011;43675;50.030;21.952;2024-03-08T10:55:49;42.50;;;38.30;;
57846;SDS011;43675;50.030;21.952;2024-03-08T10:58:23;42.20;;;38.00;;
57846;SDS011;43675;50.030;21.952;2024-03-08T11:00:52;41.70;;;37.60;;
57846;SDS011;43675;50.030;21.952;2024-03-08T11:06:23;40.10;;;36.20;;
57846;SDS011;43675;50.030;21.952;2024-03-08T11:08:56;40.70;;;36.50;;
57846;SDS011;43675;50.030;21.952;2024-03-08T11:13:51;37.80;;;34.10;;
57846;SDS011;43675;50.030;21.952;2024-03-08T11:18:53;37.90;;;34.30;;
57846;SDS011;43675;50.030;21.952;2024-03-08T11:21:20;38.40;;;34.50;;
57846;SDS011;43675;50.030;21.952;2024-03-08T11:24:02;37.20;;;33.60;;
57846;SDS011;43675;50.030;21.952;2024-03-08T11:26:33;38.20;;;34.50;;
57846;SDS011;43675;50.030;21.952;2024-03-08T11:32:03;38.30;;;34.40;;
57846;SDS011;43675;50.030;21.952;2024-03-08T11:34:42;37.20;;;33.60;;
57846;SDS011;43675;50.030;21.952;2024-03-08T11:37:13;39.40;;;35.50;;
57846;SDS011;43675;50.030;21.952;2024-03-08T11:39:48;39.90;;;36.00;;
57846;SDS011;43675;50.030;21.952;2024-03-08T11:42:18;39.10;;;34.90;;
57846;SDS011;43675;50.030;21.952;2024-03-08T11:44:46;38.60;;;34.80;;
57846;SDS011;43675;50.030;21.952;2024-03-08T11:47:20;39.70;;;35.80;;
57846;SDS011;43675;50.030;21.952;2024-03-08T11:49:47;38.70;;;35.00;;
57846;SDS011;43675;50.030;21.952;2024-03-08T11:52:20;39.70;;;35.80;;
57846;SDS011;43675;50.030;21.952;2024-03-08T11:54:48;40.10;;;36.40;;
57846;SDS011;43675;50.030;21.952;2024-03-08T11:57:18;39.80;;;35.80;;
57846;SDS011;43675;50.030;21.952;2024-03-08T11:59:54;39.30;;;35.40;;
57846;SDS011;43675;50.030;21.952;2024-03-08T12:02:22;39.70;;;35.60;;
57846;SDS011;43675;50.030;21.952;2024-03-08T12:04:58;37.60;;;34.00;;
57846;SDS011;43675;50.030;21.952;2024-03-08T12:07:25;37.00;;;33.30;;
57846;SDS011;43675;50.030;21.952;2024-03-08T12:12:41;38.80;;;34.90;;
57846;SDS011;43675;50.030;21.952;2024-03-08T12:15:08;38.70;;;34.80;;
57846;SDS011;43675;50.030;21.952;2024-03-08T12:17:34;37.40;;;33.70;;
57846;SDS011;43675;50.030;21.952;2024-03-08T12:20:11;36.40;;;32.90;;
57846;SDS011;43675;50.030;21.952;2024-03-08T12:22:42;38.30;;;34.60;;
57846;SDS011;43675;50.030;21.952;2024-03-08T12:25:13;37.10;;;33.60;;
57846;SDS011;43675;50.030;21.952;2024-03-08T12:27:40;39.50;;;35.50;;
57846;SDS011;43675;50.030;21.952;2024-03-08T12:30:20;40.50;;;36.40;;
57846;SDS011;43675;50.030;21.952;2024-03-08T12:32:50;42.10;;;37.70;;
57846;SDS011;43675;50.030;21.952;2024-03-08T12:35:26;41.50;;;37.30;;
57846;SDS011;43675;50.030;21.952;2024-03-08T12:37:57;42.30;;;37.70;;
57846;SDS011;43675;50.030;21.952;2024-03-08T12:40:30;42.10;;;37.80;;
57846;SDS011;43675;50.030;21.952;2024-03-08T12:42:58;39.50;;;35.70;;
57846;SDS011;43675;50.030;21.952;2024-03-08T12:45:25;40.60;;;36.60;;
57846;SDS011;43675;50.030;21.952;2024-03-08T12:47:55;41.00;;;36.90;;
57846;SDS011;43675;50.030;21.952;2024-03-08T12:50:28;40.60;;;36.30;;
57846;SDS011;43675;50.030;21.952;2024-03-08T12:52:55;39.60;;;35.60;;
57846;SDS011;43675;50.030;21.952;2024-03-08T12:55:22;41.20;;;37.00;;
57846;SDS011;43675;50.030;21.952;2024-03-08T12:57:48;40.20;;;36.10;;
57846;SDS011;43675;50.030;21.952;2024-03-08T13:00:15;40.90;;;36.90;;
57846;SDS011;43675;50.030;21.952;2024-03-08T13:02:42;41.30;;;36.90;;
57846;SDS011;43675;50.030;21.952;2024-03-08T13:05:09;41.30;;;37.10;;
57846;SDS011;43675;50.030;21.952;2024-03-08T13:07:35;40.80;;;36.60;;
57846;SDS011;43675;50.030;21.952;2024-03-08T13:10:03;39.00;;;35.10;;
57846;SDS011;43675;50.030;21.952;2024-03-08T13:12:30;39.10;;;35.20;;
57846;SDS011;43675;50.030;21.952;2024-03-08T13:14:57;39.50;;;35.50;;
57846;SDS011;43675;50.030;21.952;2024-03-08T13:17:23;40.50;;;36.30;;
57846;SDS011;43675;50.030;21.952;2024-03-08T13:19:50;39.90;;;35.90;;
57846;SDS011;43675;50.030;21.952;2024-03-08T13:22:16;40.80;;;36.60;;
57846;SDS011;43675;50.030;21.952;2024-03-08T13:24:43;41.20;;;36.90;;
57846;SDS011;43675;50.030;21.952;2024-03-08T13:27:16;41.30;;;37.30;;
57846;SDS011;43675;50.030;21.952;2024-03-08T13:29:42;41.70;;;37.60;;
57846;SDS011;43675;50.030;21.952;2024-03-08T13:32:09;41.60;;;37.20;;
57846;SDS011;43675;50.030;21.952;2024-03-08T13:34:35;42.30;;;37.90;;
57846;SDS011;43675;50.030;21.952;2024-03-08T13:37:09;42.30;;;38.00;;
57846;SDS011;43675;50.030;21.952;2024-03-08T13:39:36;41.60;;;37.40;;
57846;SDS011;43675;50.030;21.952;2024-03-08T13:42:03;40.70;;;36.70;;
57846;SDS011;43675;50.030;21.952;2024-03-08T13:44:30;41.80;;;37.50;;
57846;SDS011;43675;50.030;21.952;2024-03-08T13:46:56;41.40;;;37.20;;
57846;SDS011;43675;50.030;21.952;2024-03-08T13:49:23;41.90;;;37.60;;
57846;SDS011;43675;50.030;21.952;2024-03-08T13:51:49;41.60;;;37.20;;
57846;SDS011;43675;50.030;21.952;2024-03-08T13:54:16;42.20;;;37.80;;
57846;SDS011;43675;50.030;21.952;2024-03-08T13:56:43;42.20;;;37.80;;
57846;SDS011;43675;50.030;21.952;2024-03-08T13:59:11;41.70;;;37.50;;
57846;SDS011;43675;50.030;21.952;2024-03-08T14:01:37;42.90;;;38.50;;
57846;SDS011;43675;50.030;21.952;2024-03-08T14:04:04;42.10;;;37.80;;
57846;SDS011;43675;50.030;21.952;2024-03-08T14:06:30;41.40;;;37.30;;
57846;SDS011;43675;50.030;21.952;2024-03-08T14:08:57;41.20;;;37.00;;
57846;SDS011;43675;50.030;21.952;2024-03-08T14:11:24;39.90;;;35.80;;
57846;SDS011;43675;50.030;21.952;2024-03-08T14:13:53;43.70;;;39.20;;
57846;SDS011;43675;50.030;21.952;2024-03-08T14:16:20;42.20;;;38.00;;
57846;SDS011;43675;50.030;21.952;2024-03-08T14:18:46;42.60;;;38.30;;
57846;SDS011;43675;50.030;21.952;2024-03-08T14:21:13;42.90;;;38.30;;
57846;SDS011;43675;50.030;21.952;2024-03-08T14:23:43;43.00;;;38.50;;
57846;SDS011;43675;50.030;21.952;2024-03-08T14:26:10;42.80;;;38.30;;
57846;SDS011;43675;50.030;21.952;2024-03-08T14:28:36;42.60;;;38.20;;
57846;SDS011;43675;50.030;21.952;2024-03-08T14:31:03;42.00;;;37.80;;
57846;SDS011;43675;50.030;21.952;2024-03-08T14:33:30;41.80;;;37.50;;
57846;SDS011;43675;50.030;21.952;2024-03-08T14:35:56;41.60;;;37.40;;
57846;SDS011;43675;50.030;21.952;2024-03-08T14:38:30;41.90;;;37.60;;
57846;SDS011;43675;50.030;21.952;2024-03-08T14:40:56;42.10;;;37.60;;
57846;SDS011;43675;50.030;21.952;2024-03-08T14:43:23;42.30;;;37.90;;
57846;SDS011;43675;50.030;21.952;2024-03-08T14:45:50;44.00;;;38.30;;
57846;SDS011;43675;50.030;21.952;2024-03-08T14:48:16;42.10;;;37.60;;